Time;durP1;ratioP1;P1;durP2;ratioP2;P2;SDS_P1;SDS_P2;PMS_P1;PMS_P2;Temp;Humidity;BMP_temperature;BMP_pressure;BME280_temperature;BME280_humidity;BME280_pressure;Samples;Min_cycle;Max_cycle;Signal;HPM_P1;HPM_P2
2021/01/28 00:01:45;0.00;0.00;0.62;0.00;0.00;0.62;1.20;0.80;;;20.90;27.50;;;;;;2253330;61;20396;-61
2021/01/28 00:04:29;0.00;0.00;0.62;0.00;0.00;0.62;1.20;0.87;;;20.90;27.50;;;;;;2254029;61;20471;-62
2021/01/28 00:07:14;0.00;0.00;0.62;0.00;0.00;0.62;1.17;0.80;;;20.90;27.50;;;;;;2253953;61;20371;-61
2021/01/28 00:09:58;0.00;0.00;0.62;0.00;0.00;0.62;1.20;0.70;;;20.90;27.60;;;;;;2254013;61;20356;-61
2021/01/28 00:12:43;0.00;0.00;0.62;0.00;0.00;0.62;1.33;0.80;;;20.90;27.60;;;;;;2254437;61;20395;-62
2021/01/28 00:15:33;0.00;0.00;0.62;0.00;0.00;0.62;1.20;0.83;;;20.90;27.60;;;;;;2253730;61;20715;-61
2021/01/28 00:18:17;0.00;0.00;0.62;0.00;0.00;0.62;1.30;1.00;;;20.90;27.60;;;;;;2254056;61;20361;-61
2021/01/28 00:21:02;0.00;0.00;0.62;0.00;0.00;0.62;1.50;0.80;;;21.00;27.60;;;;;;2254685;61;20704;-62
2021/01/28 00:23:47;0.00;0.00;0.62;0.00;0.00;0.62;1.30;0.83;;;21.00;27.70;;;;;;2258145;61;20436;-61
2021/01/28 00:26:31;0.00;0.00;0.62;0.00;0.00;0.62;1.30;0.80;;;20.90;27.50;;;;;;2257657;61;20383;-62
2021/01/28 00:29:16;0.00;0.00;0.62;0.00;0.00;0.62;1.70;0.90;;;21.00;27.60;;;;;;2258113;61;20434;-61
2021/01/28 00:32:01;0.00;0.00;0.62;0.00;0.00;0.62;1.47;1.00;;;21.00;27.60;;;;;;2258472;61;20547;-62
2021/01/28 00:34:46;0.00;0.00;0.62;0.00;0.00;0.62;1.73;0.90;;;21.00;27.60;;;;;;2258060;61;20873;-62
2021/01/28 00:37:30;0.00;0.00;0.62;0.00;0.00;0.62;1.40;0.80;;;21.00;27.50;;;;;;2258006;61;20717;-62
2021/01/28 00:40:15;0.00;0.00;0.62;0.00;0.00;0.62;4.70;1.10;;;21.00;27.50;;;;;;2257849;61;20359;-61
2021/01/28 00:43:00;0.00;0.00;0.62;0.00;0.00;0.62;2.47;0.93;;;21.00;27.50;;;;;;2258180;61;20784;-62
2021/01/28 00:45:46;0.00;0.00;0.62;0.00;0.00;0.62;1.80;1.20;;;21.00;27.50;;;;;;2256844;61;20746;-61
2021/01/28 00:48:32;0.00;0.00;0.62;0.00;0.00;0.62;2.80;1.30;;;21.00;27.40;;;;;;2257065;61;20359;-61
2021/01/28 00:51:17;0.00;0.00;0.62;0.00;0.00;0.62;1.43;1.00;;;21.00;27.40;;;;;;2257863;61;20739;-61
2021/01/28 00:54:03;0.00;0.00;0.62;0.00;0.00;0.62;1.70;1.03;;;20.90;27.30;;;;;;2257508;61;20367;-61
2021/01/28 00:56:47;0.00;0.00;0.62;0.00;0.00;0.62;1.67;1.10;;;21.00;27.30;;;;;;2258050;61;20458;-61
2021/01/28 00:59:34;0.00;0.00;0.62;0.00;0.00;0.62;1.70;1.13;;;20.90;27.30;;;;;;2256006;61;20411;-61
2021/01/28 01:02:19;0.00;0.00;0.62;0.00;0.00;0.62;3.80;1.87;;;20.90;27.20;;;;;;2253132;61;20344;-60
2021/01/28 01:05:07;0.00;0.00;0.62;0.00;0.00;0.62;1.67;1.03;;;20.90;27.30;;;;;;2254087;61;20579;-61
2021/01/28 01:07:53;0.00;0.00;0.62;0.00;0.00;0.62;1.57;1.00;;;20.90;27.30;;;;;;2253208;61;20360;-61
2021/01/28 01:10:41;0.00;0.00;0.62;0.00;0.00;0.62;3.40;1.07;;;20.90;27.30;;;;;;2253663;61;20426;-61
2021/01/28 01:13:29;0.00;0.00;0.62;0.00;0.00;0.62;1.40;1.00;;;20.90;27.30;;;;;;2253882;61;20403;-61
2021/01/28 01:16:25;0.00;0.00;0.62;0.00;0.00;0.62;1.70;1.00;;;20.90;27.30;;;;;;2253165;61;20420;-61
2021/01/28 01:19:17;0.00;0.00;0.62;0.00;0.00;0.62;1.43;1.10;;;20.90;27.30;;;;;;2253697;61;20732;-61
2021/01/28 01:22:28;0.00;0.00;0.62;0.00;0.00;0.62;1.73;1.00;;;20.90;27.90;;;;;;2256143;61;20375;-60
2021/01/28 01:25:14;0.00;0.00;0.62;0.00;0.00;0.62;1.40;0.90;;;20.90;27.30;;;;;;2257048;61;20360;-61
2021/01/28 01:27:59;0.00;0.00;0.62;0.00;0.00;0.62;1.83;1.40;;;20.90;27.40;;;;;;2258347;61;20630;-61
2021/01/28 01:30:58;0.00;0.00;0.62;0.00;0.00;0.62;1.47;1.00;;;20.90;27.40;;;;;;2257457;61;20624;-62
2021/01/28 01:33:43;0.00;0.00;0.62;0.00;0.00;0.62;2.13;1.23;;;20.90;27.30;;;;;;2257546;61;20367;-61
2021/01/28 01:36:29;0.00;0.00;0.62;0.00;0.00;0.62;4.40;1.10;;;20.90;27.90;;;;;;2257175;61;20384;-62
2021/01/28 01:39:19;0.00;0.00;0.62;0.00;0.00;0.62;2.27;1.70;;;20.90;27.40;;;;;;2256949;61;20395;-61
2021/01/28 01:42:07;0.00;0.00;0.62;0.00;0.00;0.62;6.40;2.20;;;20.90;27.50;;;;;;2258241;61;20363;-61
2021/01/28 01:44:52;0.00;0.00;0.62;0.00;0.00;0.62;2.73;2.33;;;20.90;27.50;;;;;;2257292;61;20375;-61
2021/01/28 01:47:53;0.00;0.00;0.62;0.00;0.00;0.62;3.77;2.43;;;20.90;27.50;;;;;;2257322;61;20399;-61
2021/01/28 01:50:53;0.00;0.00;0.62;0.00;0.00;0.62;2.90;2.60;;;20.90;27.50;;;;;;2257325;61;20587;-61
2021/01/28 01:53:44;0.00;0.00;0.62;0.00;0.00;0.62;3.90;3.23;;;20.80;27.40;;;;;;2257368;61;20355;-61
2021/01/28 01:56:36;0.00;0.00;0.62;0.00;0.00;0.62;2.90;2.60;;;20.80;27.30;;;;;;2258275;61;20797;-61
2021/01/28 01:59:28;0.00;0.00;0.62;0.00;0.00;0.62;5.80;2.80;;;20.80;27.30;;;;;;2256988;61;20360;-61
2021/01/28 02:02:35;0.00;0.00;0.62;0.00;0.00;0.62;5.40;3.80;;;20.80;27.30;;;;;;2257570;61;20390;-61
2021/01/28 02:05:44;0.00;0.00;0.62;0.00;0.00;0.62;3.70;3.17;;;20.80;27.30;;;;;;2257316;61;20378;-61
2021/01/28 02:08:51;0.00;0.00;0.62;0.00;0.00;0.62;3.97;3.00;;;20.70;27.20;;;;;;2257309;61;20395;-61
2021/01/28 02:11:57;0.00;0.00;0.62;0.00;0.00;0.62;3.80;3.50;;;20.70;27.10;;;;;;2252405;61;20714;-61
2021/01/28 02:15:08;0.00;0.00;0.62;0.00;0.00;0.62;4.40;3.70;;;20.70;27.10;;;;;;2256857;61;20368;-61
2021/01/28 02:18:04;0.00;0.00;0.62;0.00;0.00;0.62;5.03;3.50;;;20.60;27.10;;;;;;2260272;61;20442;-61
2021/01/28 02:21:14;0.00;0.00;0.62;0.00;0.00;0.62;3.97;3.30;;;20.70;27.20;;;;;;2257023;61;20775;-61
2021/01/28 02:24:37;0.00;0.00;0.62;0.00;0.00;0.62;3.50;3.20;;;20.60;27.20;;;;;;2255723;61;20398;-61
2021/01/28 02:27:26;0.00;0.00;0.62;0.00;0.00;0.62;3.80;3.23;;;20.60;27.20;;;;;;2250223;61;20420;-61
2021/01/28 02:30:34;0.00;0.00;0.62;0.00;0.00;0.62;3.60;3.30;;;20.60;27.20;;;;;;2253363;61;20368;-61
2021/01/28 02:33:52;0.00;0.00;0.62;0.00;0.00;0.62;3.30;3.00;;;20.50;27.10;;;;;;2253680;61;20435;-61
2021/01/28 02:36:45;0.00;0.00;0.62;0.00;0.00;0.62;3.20;2.90;;;20.50;27.20;;;;;;2255444;61;20465;-61
2021/01/28 02:39:56;0.00;0.00;0.62;0.00;0.00;0.62;3.10;2.80;;;20.50;27.20;;;;;;2253596;61;20445;-61
2021/01/28 02:42:52;0.00;0.00;0.62;0.00;0.00;0.62;3.40;2.90;;;20.50;27.20;;;;;;2253068;61;20364;-61
2021/01/28 02:46:03;0.00;0.00;0.62;0.00;0.00;0.62;5.33;3.23;;;20.50;27.20;;;;;;2255352;61;20438;-63
2021/01/28 02:49:03;0.00;0.00;0.62;0.00;0.00;0.62;3.80;2.73;;;20.50;27.20;;;;;;2256307;61;20348;-61
2021/01/28 02:51:52;0.00;0.00;0.62;0.00;0.00;0.62;2.73;2.47;;;20.40;27.20;;;;;;2252904;61;20376;-61
2021/01/28 02:54:54;0.00;0.00;0.62;0.00;0.00;0.62;3.23;2.70;;;20.40;27.20;;;;;;2255694;61;20578;-61
2021/01/28 02:57:41;0.00;0.00;0.62;0.00;0.00;0.62;4.13;3.60;;;20.40;27.20;;;;;;2253406;61;20392;-61
2021/01/28 03:00:30;0.00;0.00;0.62;0.00;0.00;0.62;2.97;2.43;;;20.40;27.20;;;;;;2254547;61;20747;-61
2021/01/28 03:03:15;0.00;0.00;0.62;0.00;0.00;0.62;3.60;2.60;;;20.40;27.20;;;;;;2253815;61;20364;-61
2021/01/28 03:06:06;0.00;0.00;0.62;0.00;0.00;0.62;2.90;2.47;;;20.30;27.10;;;;;;2252603;61;20886;-61
2021/01/28 03:08:50;0.00;0.00;0.62;0.00;0.00;0.62;2.90;2.43;;;20.30;27.10;;;;;;2253574;61;20407;-61
2021/01/28 03:12:02;0.00;0.00;0.62;0.00;0.00;0.62;3.30;2.70;;;20.30;27.10;;;;;;2252625;61;20372;-61
2021/01/28 03:15:06;0.00;0.00;0.62;0.00;0.00;0.62;3.10;2.80;;;20.30;27.20;;;;;;2252469;61;20360;-61
2021/01/28 03:17:53;0.00;0.00;0.62;0.00;0.00;0.62;3.20;2.83;;;20.30;27.20;;;;;;2256142;61;20400;-61
2021/01/28 03:20:38;0.00;0.00;0.62;0.00;0.00;0.62;3.10;2.70;;;20.30;27.20;;;;;;2253350;61;20404;-61
2021/01/28 03:23:33;0.00;0.00;0.62;0.00;0.00;0.62;2.60;2.40;;;20.30;27.20;;;;;;2252780;61;20712;-61
2021/01/28 03:26:38;0.00;0.00;0.62;0.00;0.00;0.62;3.03;2.73;;;20.30;27.20;;;;;;2253761;61;20380;-61
2021/01/28 03:29:22;0.00;0.00;0.62;0.00;0.00;0.62;4.00;3.60;;;20.30;27.20;;;;;;2253498;61;20407;-61
2021/01/28 03:32:07;0.00;0.00;0.62;0.00;0.00;0.62;3.80;2.97;;;20.30;27.20;;;;;;2253663;61;20359;-61
2021/01/28 03:34:52;0.00;0.00;0.62;0.00;0.00;0.62;3.30;2.83;;;20.20;27.20;;;;;;2255482;61;20356;-61
2021/01/28 03:37:38;0.00;0.00;0.62;0.00;0.00;0.62;3.63;2.97;;;20.20;27.20;;;;;;2254965;61;20776;-61
2021/01/28 03:40:27;0.00;0.00;0.62;0.00;0.00;0.62;6.10;3.13;;;20.20;27.20;;;;;;2253933;61;20388;-61
2021/01/28 03:43:14;0.00;0.00;0.62;0.00;0.00;0.62;3.30;2.80;;;20.20;27.20;;;;;;2255366;61;20360;-61
2021/01/28 03:45:58;0.00;0.00;0.62;0.00;0.00;0.62;3.90;3.07;;;20.20;27.20;;;;;;2255522;61;20605;-61
2021/01/28 03:48:44;0.00;0.00;0.62;0.00;0.00;0.62;3.50;3.00;;;20.20;27.30;;;;;;2256283;61;20387;-61
2021/01/28 03:51:52;0.00;0.00;0.62;0.00;0.00;0.62;3.43;2.93;;;20.20;27.20;;;;;;2253020;61;20372;-61
2021/01/28 03:55:04;0.00;0.00;0.62;0.00;0.00;0.62;3.23;2.70;;;20.20;27.30;;;;;;2256067;61;20464;-61
2021/01/28 03:57:57;0.00;0.00;0.62;0.00;0.00;0.62;3.73;3.00;;;20.20;27.30;;;;;;2252457;61;20431;-61
2021/01/28 04:00:42;0.00;0.00;0.62;0.00;0.00;0.62;5.17;3.17;;;20.10;27.20;;;;;;2255642;61;20804;-61
2021/01/28 04:03:32;0.00;0.00;0.62;0.00;0.00;0.62;2.73;2.47;;;20.10;27.30;;;;;;2253336;61;20356;-61
2021/01/28 04:06:42;0.00;0.00;0.62;0.00;0.00;0.62;5.00;3.47;;;20.10;27.20;;;;;;2251194;61;20588;-61
2021/01/28 04:09:57;0.00;0.00;0.62;0.00;0.00;0.62;3.60;2.87;;;20.10;27.20;;;;;;2253499;61;20376;-61
2021/01/28 04:12:46;0.00;0.00;0.62;0.00;0.00;0.62;2.27;2.07;;;20.10;27.20;;;;;;2252400;61;20747;-61
2021/01/28 04:15:40;0.00;0.00;0.62;0.00;0.00;0.62;2.87;2.40;;;20.10;27.20;;;;;;2252619;61;20423;-61
2021/01/28 04:18:26;0.00;0.00;0.62;0.00;0.00;0.62;3.10;2.33;;;20.10;27.20;;;;;;2253186;61;20748;-61
2021/01/28 04:21:17;0.00;0.00;0.62;0.00;0.00;0.62;2.97;2.43;;;20.10;27.20;;;;;;2253652;61;20629;-61
2021/01/28 04:24:04;0.00;0.00;0.62;0.00;0.00;0.62;3.10;2.37;;;20.00;27.30;;;;;;2253179;61;20364;-61
2021/01/28 04:27:19;0.00;0.00;0.62;0.00;0.00;0.62;2.80;2.30;;;20.00;27.20;;;;;;2252678;61;20424;-60
2021/01/28 04:30:20;0.00;0.00;0.62;0.00;0.00;0.62;3.07;2.30;;;20.00;27.20;;;;;;2252922;61;20351;-61
2021/01/28 04:33:11;0.00;0.00;0.62;0.00;0.00;0.62;3.40;2.40;;;20.00;27.20;;;;;;2253005;61;20420;-61
2021/01/28 04:36:14;0.00;0.00;0.62;0.00;0.00;0.62;3.53;2.37;;;20.00;27.20;;;;;;2252686;61;20600;-61
2021/01/28 04:39:05;0.00;0.00;0.62;0.00;0.00;0.62;3.70;2.40;;;20.00;27.20;;;;;;2253110;61;20383;-61
2021/01/28 04:41:51;0.00;0.00;0.62;0.00;0.00;0.62;2.70;2.50;;;20.00;27.20;;;;;;2252788;61;20732;-61
2021/01/28 04:44:37;0.00;0.00;0.62;0.00;0.00;0.62;4.50;2.23;;;20.00;27.20;;;;;;2252495;61;20363;-61
2021/01/28 04:47:34;0.00;0.00;0.62;0.00;0.00;0.62;2.97;2.30;;;20.00;27.20;;;;;;2252907;61;20400;-61
2021/01/28 04:50:24;0.00;0.00;0.62;0.00;0.00;0.62;3.40;3.00;;;20.00;27.20;;;;;;2253433;61;20623;-61
2021/01/28 04:53:31;0.00;0.00;0.62;0.00;0.00;0.62;2.77;2.30;;;20.00;27.20;;;;;;2253435;61;20607;-61
2021/01/28 04:56:33;0.00;0.00;0.62;0.00;0.00;0.62;3.10;2.50;;;20.00;27.20;;;;;;2253289;61;20387;-61
2021/01/28 04:59:42;0.00;0.00;0.62;0.00;0.00;0.62;2.73;1.93;;;20.00;27.20;;;;;;2255187;61;20386;-61
2021/01/28 05:02:29;0.00;0.00;0.62;0.00;0.00;0.62;2.20;2.00;;;19.90;27.20;;;;;;2257665;61;20383;-61
2021/01/28 05:05:17;0.00;0.00;0.62;0.00;0.00;0.62;3.07;2.20;;;19.90;27.20;;;;;;2257503;61;20770;-61
2021/01/28 05:08:28;0.00;0.00;0.62;0.00;0.00;0.62;3.13;2.83;;;19.90;27.10;;;;;;2258275;61;20379;-61
2021/01/28 05:11:35;0.00;0.00;0.62;0.00;0.00;0.62;2.47;2.20;;;19.90;27.10;;;;;;2257905;61;20356;-61
2021/01/28 05:14:40;0.00;0.00;0.62;0.00;0.00;0.62;3.27;2.40;;;19.90;27.20;;;;;;2257527;61;20416;-61
2021/01/28 05:17:54;0.00;0.00;0.62;0.00;0.00;0.62;2.70;2.27;;;19.90;27.20;;;;;;2258114;61;20383;-61
2021/01/28 05:20:51;0.00;0.00;0.62;0.00;0.00;0.62;2.80;2.20;;;19.90;27.10;;;;;;2256914;61;20360;-60
2021/01/28 05:23:45;0.00;0.00;0.62;0.00;0.00;0.62;2.53;2.30;;;19.90;27.20;;;;;;2487846;53;20355;-61
2021/01/28 05:26:38;0.00;0.00;0.62;0.00;0.00;0.62;3.50;2.50;;;19.90;27.20;;;;;;2253048;61;20618;-60
2021/01/28 05:29:29;0.00;0.00;0.62;0.00;0.00;0.62;2.40;2.20;;;19.90;27.20;;;;;;2253516;61;20480;-61
2021/01/28 05:32:39;0.00;0.00;0.62;0.00;0.00;0.62;3.70;2.30;;;19.90;27.20;;;;;;2253886;61;20736;-60
2021/01/28 05:36:17;0.00;0.00;0.62;0.00;0.00;0.62;3.03;2.33;;;19.90;27.20;;;;;;2240440;62;20399;-60
2021/01/28 05:39:29;0.00;0.00;0.62;0.00;0.00;0.62;3.00;2.37;;;19.90;27.20;;;;;;2254167;61;20634;-60
2021/01/28 05:42:26;0.00;0.00;0.62;0.00;0.00;0.62;3.00;2.30;;;19.90;27.20;;;;;;2253011;61;20381;-61
2021/01/28 05:45:28;0.00;0.00;0.62;0.00;0.00;0.62;2.60;2.10;;;19.90;27.20;;;;;;2253025;61;20759;-61
2021/01/28 05:48:32;0.00;0.00;0.62;0.00;0.00;0.62;2.60;2.00;;;19.90;27.20;;;;;;2253725;61;20353;-61
2021/01/28 05:51:40;0.00;0.00;0.62;0.00;0.00;0.62;2.60;1.77;;;19.80;27.10;;;;;;2253403;61;20352;-61
2021/01/28 05:54:26;0.00;0.00;0.62;0.00;0.00;0.62;2.13;1.90;;;19.80;27.10;;;;;;2253272;61;20380;-61
2021/01/28 05:57:40;0.00;0.00;0.62;0.00;0.00;0.62;2.67;2.00;;;19.80;27.10;;;;;;2253401;61;20391;-61
2021/01/28 06:00:37;0.00;0.00;0.62;0.00;0.00;0.62;1.87;1.60;;;19.80;27.20;;;;;;2256531;61;20483;-61
2021/01/28 06:04:10;0.00;0.00;0.62;0.00;0.00;0.62;3.40;1.73;;;19.80;27.20;;;;;;2257113;61;20402;-61
2021/01/28 06:07:58;0.00;0.00;0.62;0.00;0.00;0.62;2.40;1.80;;;19.80;27.10;;;;;;2257496;61;20448;-61
2021/01/28 06:11:11;0.00;0.00;0.62;0.00;0.00;0.62;2.10;1.50;;;19.80;27.20;;;;;;2259753;61;20367;-60
2021/01/28 06:14:37;0.00;0.00;0.62;0.00;0.00;0.62;2.23;1.80;;;19.80;27.20;;;;;;2257129;61;20375;-61
2021/01/28 06:18:06;0.00;0.00;0.62;0.00;0.00;0.62;2.67;1.80;;;19.80;27.20;;;;;;2257306;61;20403;-60
2021/01/28 06:21:33;0.00;0.00;0.62;0.00;0.00;0.62;1.87;1.50;;;19.80;27.20;;;;;;2256664;61;20413;-61
2021/01/28 06:25:28;0.00;0.00;0.62;0.00;0.00;0.62;2.23;1.43;;;19.80;27.20;;;;;;2253365;61;20384;-61
2021/01/28 06:28:33;0.00;0.00;0.62;0.00;0.00;0.62;2.23;1.83;;;19.80;27.20;;;;;;2253128;61;20570;-60
2021/01/28 06:31:34;0.00;0.00;0.62;0.00;0.00;0.62;2.30;1.50;;;19.80;27.20;;;;;;2253589;61;20360;-61
2021/01/28 06:35:10;0.00;0.00;0.62;0.00;0.00;0.62;2.67;1.87;;;19.80;27.20;;;;;;2249331;61;20804;-61
2021/01/28 06:38:43;0.00;0.00;0.62;0.00;0.00;0.62;1.90;1.50;;;19.80;27.20;;;;;;2253675;61;20392;-61
2021/01/28 06:41:34;0.00;0.00;0.62;0.00;0.00;0.62;2.47;2.00;;;19.80;27.20;;;;;;2253169;61;20376;-61
2021/01/28 06:44:49;0.00;0.00;0.62;0.00;0.00;0.62;2.13;1.73;;;19.80;27.20;;;;;;2252905;61;20437;-60
2021/01/28 06:47:59;0.00;0.00;0.62;0.00;0.00;0.62;2.67;1.87;;;19.70;27.10;;;;;;2253054;61;20464;-61
2021/01/28 06:51:03;0.00;0.00;0.62;0.00;0.00;0.62;2.30;1.67;;;19.70;27.20;;;;;;2253513;61;20399;-60
2021/01/28 06:54:03;0.00;0.00;0.62;0.00;0.00;0.62;3.27;1.80;;;19.80;27.30;;;;;;2253356;61;20711;-61
2021/01/28 06:57:12;0.00;0.00;0.62;0.00;0.00;0.62;3.13;1.80;;;19.80;27.30;;;;;;2253534;61;20422;-63
2021/01/28 07:00:31;0.00;0.00;0.62;0.00;0.00;0.62;3.27;1.87;;;19.80;27.40;;;;;;2256111;61;20675;-61
2021/01/28 07:03:30;0.00;0.00;0.62;0.00;0.00;0.62;2.50;1.90;;;19.80;27.40;;;;;;2256992;61;20697;-59
2021/01/28 07:06:43;0.00;0.00;0.62;0.00;0.00;0.62;2.10;1.70;;;19.80;27.40;;;;;;2257299;61;20448;-60
2021/01/28 07:09:43;0.00;0.00;0.62;0.00;0.00;0.62;2.53;1.93;;;19.80;27.40;;;;;;2256795;61;20672;-60
2021/01/28 07:12:37;0.00;0.00;0.62;0.00;0.00;0.62;2.53;1.83;;;19.80;27.30;;;;;;2256684;61;20719;-61
2021/01/28 07:15:46;0.00;0.00;0.62;0.00;0.00;0.62;2.83;1.87;;;19.80;27.30;;;;;;2257354;61;20418;-61
2021/01/28 07:18:44;0.00;0.00;0.62;0.00;0.00;0.62;2.37;2.03;;;19.80;27.40;;;;;;2257742;61;20383;-61
2021/01/28 07:21:34;0.00;0.00;0.62;0.00;0.00;0.62;2.00;1.80;;;19.80;27.40;;;;;;2256048;61;20483;-60
2021/01/28 07:24:33;0.00;0.00;0.62;0.00;0.00;0.62;2.17;1.50;;;19.80;27.40;;;;;;2252900;61;20364;-60
2021/01/28 07:27:22;0.00;0.00;0.62;0.00;0.00;0.62;3.80;2.00;;;19.80;27.40;;;;;;2253031;61;20368;-60
2021/01/28 07:30:30;0.00;0.00;0.62;0.00;0.00;0.62;2.20;1.67;;;19.80;27.40;;;;;;2253763;61;20364;-61
2021/01/28 07:33:39;0.00;0.00;0.62;0.00;0.00;0.62;1.80;1.53;;;19.80;27.40;;;;;;2253434;61;20410;-61
2021/01/28 07:36:49;0.00;0.00;0.62;0.00;0.00;0.62;3.20;1.80;;;19.80;27.30;;;;;;2253498;61;20494;-61
2021/01/28 07:39:59;0.00;0.00;0.62;0.00;0.00;0.62;2.67;2.00;;;19.80;27.40;;;;;;2253421;61;20415;-61
2021/01/28 07:43:03;0.00;0.00;0.62;0.00;0.00;0.62;2.80;1.53;;;19.80;27.40;;;;;;2252758;61;20610;-60
2021/01/28 07:46:14;0.00;0.00;0.62;0.00;0.00;0.62;1.90;1.30;;;19.80;27.40;;;;;;2253345;61;20499;-60
2021/01/28 07:49:18;0.00;0.00;0.62;0.00;0.00;0.62;2.03;1.47;;;19.80;27.40;;;;;;2252721;61;20700;-60
2021/01/28 07:52:38;0.00;0.00;0.62;0.00;0.00;0.62;2.27;1.77;;;19.80;27.40;;;;;;2253972;61;20682;-59
2021/01/28 07:55:41;0.00;0.00;0.62;0.00;0.00;0.62;2.37;1.67;;;19.80;27.40;;;;;;2253040;61;20697;-60
2021/01/28 07:58:31;0.00;0.00;0.62;0.00;0.00;0.62;2.93;1.47;;;19.80;27.40;;;;;;2253358;61;20427;-61
2021/01/28 08:01:16;0.00;0.00;0.62;0.00;0.00;0.62;1.90;1.63;;;19.80;27.30;;;;;;2487501;53;20347;-60
2021/01/28 08:04:05;0.00;0.00;0.62;0.00;0.00;0.62;3.10;1.20;;;19.80;27.30;;;;;;2252970;61;20556;-60
2021/01/28 08:06:51;0.00;0.00;0.62;0.00;0.00;0.62;2.57;1.50;;;19.80;27.30;;;;;;2253643;61;20680;-61
2021/01/28 08:09:46;0.00;0.00;0.62;0.00;0.00;0.62;5.60;1.27;;;19.80;27.30;;;;;;2253314;61;20388;-61
2021/01/28 08:12:36;0.00;0.00;0.62;0.00;0.00;0.62;1.77;1.27;;;19.80;27.40;;;;;;2253034;61;20360;-61
2021/01/28 08:15:30;0.00;0.00;0.62;0.00;0.00;0.62;1.90;1.20;;;19.80;27.40;;;;;;2253589;61;20392;-58
2021/01/28 08:18:20;0.00;0.00;0.62;0.00;0.00;0.62;2.17;1.00;;;19.90;27.50;;;;;;2253290;61;20395;-60
2021/01/28 08:21:09;0.00;0.00;0.62;0.00;0.00;0.62;1.43;0.90;;;19.90;27.50;;;;;;2254200;61;20399;-60
2021/01/28 08:24:07;0.00;0.00;0.62;0.00;0.00;0.62;1.30;0.90;;;19.90;27.50;;;;;;2534616;45;20433;-60
2021/01/28 08:26:52;0.00;0.00;0.62;0.00;0.00;0.62;1.57;1.00;;;19.90;27.60;;;;;;2253646;61;20412;-58
2021/01/28 08:29:36;0.00;0.00;0.62;0.00;0.00;0.62;4.43;0.90;;;19.90;27.90;;;;;;2254517;61;20403;-60
2021/01/28 08:32:28;0.00;0.00;0.62;0.00;0.00;0.62;6.50;1.00;;;19.90;27.60;;;;;;2253859;61;20689;-61
2021/01/28 08:35:20;0.00;0.00;0.62;0.00;0.00;0.62;1.60;1.00;;;19.90;27.50;;;;;;2253148;61;20371;-61
2021/01/28 08:38:14;0.00;0.00;0.62;0.00;0.00;0.62;2.97;1.40;;;19.90;28.10;;;;;;2253399;61;20427;-61
2021/01/28 08:41:14;0.00;0.00;0.62;0.00;0.00;0.62;1.83;1.00;;;20.00;27.60;;;;;;2250323;61;20356;-60
2021/01/28 08:44:01;0.00;0.00;0.62;0.00;0.00;0.62;1.30;0.90;;;20.00;27.60;;;;;;2253981;61;20516;-60
2021/01/28 08:46:46;0.00;0.00;0.62;0.00;0.00;0.62;1.20;0.70;;;20.00;27.60;;;;;;2253536;61;20392;-61
2021/01/28 08:49:31;0.00;0.00;0.62;0.00;0.00;0.62;1.43;0.90;;;20.00;28.20;;;;;;2254038;61;20364;-60
2021/01/28 08:52:18;0.00;0.00;0.62;0.00;0.00;0.62;1.30;1.07;;;20.00;27.60;;;;;;2254320;61;20372;-59
2021/01/28 08:55:11;0.00;0.00;0.62;0.00;0.00;0.62;1.40;0.83;;;20.00;27.60;;;;;;2254194;61;20373;-62
2021/01/28 08:58:05;0.00;0.00;0.62;0.00;0.00;0.62;1.20;0.77;;;20.00;27.60;;;;;;2254308;61;20392;-61
2021/01/28 09:00:56;0.00;0.00;0.62;0.00;0.00;0.62;1.30;0.73;;;20.10;27.70;;;;;;2253616;61;20373;-63
2021/01/28 09:03:53;0.00;0.00;0.62;0.00;0.00;0.62;1.27;0.70;;;20.10;27.70;;;;;;2253867;61;20571;-62
2021/01/28 09:06:42;0.00;0.00;0.62;0.00;0.00;0.62;1.37;0.80;;;20.10;27.70;;;;;;2253932;61;20431;-64
2021/01/28 09:09:31;0.00;0.00;0.62;0.00;0.00;0.62;2.00;0.80;;;20.10;27.60;;;;;;2253811;61;20768;-61
2021/01/28 09:12:23;0.00;0.00;0.62;0.00;0.00;0.62;1.60;0.83;;;20.20;27.70;;;;;;2253767;61;20368;-63
2021/01/28 09:15:11;0.00;0.00;0.62;0.00;0.00;0.62;1.80;0.80;;;20.20;27.70;;;;;;2253112;61;20760;-62
2021/01/28 09:18:05;0.00;0.00;0.62;0.00;0.00;0.62;3.67;0.80;;;20.20;27.70;;;;;;2253630;61;20380;-71
2021/01/28 09:20:50;0.00;0.00;0.62;0.00;0.00;0.62;1.40;0.80;;;20.20;27.70;;;;;;2254335;61;20587;-59
2021/01/28 09:23:36;0.00;0.00;0.62;0.00;0.00;0.62;1.20;0.70;;;20.20;27.70;;;;;;2253843;61;20368;-62
2021/01/28 09:26:24;0.00;0.00;0.62;0.00;0.00;0.62;1.60;1.03;;;20.20;27.70;;;;;;2253486;61;20812;-62
2021/01/28 09:29:15;0.00;0.00;0.62;0.00;0.00;0.62;1.40;1.00;;;20.20;27.70;;;;;;2254226;61;20383;-64
2021/01/28 09:32:07;0.00;0.00;0.62;0.00;0.00;0.62;1.20;0.70;;;20.30;27.70;;;;;;2254064;61;20363;-63
2021/01/28 09:35:12;0.00;0.00;0.62;0.00;0.00;0.62;1.30;0.90;;;20.30;27.70;;;;;;2253770;61;20369;-66
2021/01/28 09:38:06;0.00;0.00;0.62;0.00;0.00;0.62;1.10;0.70;;;20.30;27.70;;;;;;2253683;61;20614;-62
2021/01/28 09:41:07;0.00;0.00;0.62;0.00;0.00;0.62;1.40;1.00;;;20.30;27.70;;;;;;2253713;61;20376;-61
2021/01/28 09:43:51;0.00;0.00;0.62;0.00;0.00;0.62;1.90;1.00;;;20.30;27.70;;;;;;2254173;61;20507;-62
2021/01/28 09:46:36;0.00;0.00;0.62;0.00;0.00;0.62;1.83;1.20;;;20.30;27.70;;;;;;2253672;61;20395;-62
2021/01/28 09:49:21;0.00;0.00;0.62;0.00;0.00;0.62;1.60;0.80;;;20.30;27.70;;;;;;2253658;61;20392;-62
2021/01/28 09:52:08;0.00;0.00;0.62;0.00;0.00;0.62;1.20;0.77;;;20.30;27.70;;;;;;2253848;61;20423;-63
2021/01/28 09:54:56;0.00;0.00;0.62;0.00;0.00;0.62;1.50;0.87;;;20.30;27.70;;;;;;2253538;61;20349;-63
2021/01/28 09:57:41;0.00;0.00;0.62;0.00;0.00;0.62;1.20;0.70;;;20.40;27.80;;;;;;2253864;61;20474;-64
2021/01/28 10:00:26;0.00;0.00;0.62;0.00;0.00;0.62;1.30;0.70;;;20.40;27.80;;;;;;2254569;61;20731;-62
2021/01/28 10:03:13;0.00;0.00;0.62;0.00;0.00;0.62;1.60;0.70;;;20.40;27.70;;;;;;2257721;61;20391;-59
2021/01/28 10:05:57;0.00;0.00;0.62;0.00;0.00;0.62;1.27;0.70;;;20.40;27.80;;;;;;2257805;61;20383;-60
2021/01/28 10:08:45;0.00;0.00;0.62;0.00;0.00;0.62;1.80;0.90;;;20.40;27.70;;;;;;2257672;61;20577;-62
2021/01/28 10:11:30;0.00;0.00;0.62;0.00;0.00;0.62;1.10;0.70;;;20.40;27.70;;;;;;2257663;61;20363;-59
2021/01/28 10:14:15;0.00;0.00;0.62;0.00;0.00;0.62;1.17;0.67;;;20.40;27.70;;;;;;2257249;61;20442;-61
2021/01/28 10:17:00;0.00;0.00;0.62;0.00;0.00;0.62;1.20;0.70;;;20.50;27.80;;;;;;2257530;61;20578;-63
2021/01/28 10:19:44;0.00;0.00;0.62;0.00;0.00;0.62;1.40;0.80;;;20.50;27.80;;;;;;2258017;61;20459;-59
2021/01/28 10:22:31;0.00;0.00;0.62;0.00;0.00;0.62;1.23;0.90;;;20.50;27.70;;;;;;2254694;61;20583;-60
2021/01/28 10:25:19;0.00;0.00;0.62;0.00;0.00;0.62;1.20;0.80;;;20.50;27.80;;;;;;2253321;61;20396;-59
2021/01/28 10:28:04;0.00;0.00;0.62;0.00;0.00;0.62;1.10;0.70;;;20.50;27.80;;;;;;2253799;61;20355;-60
2021/01/28 10:30:50;0.00;0.00;0.62;0.00;0.00;0.62;1.40;1.00;;;20.50;27.70;;;;;;2253570;61;20411;-60
2021/01/28 10:33:37;0.00;0.00;0.62;0.00;0.00;0.62;1.30;0.90;;;20.50;27.80;;;;;;2252870;61;20364;-62
2021/01/28 10:36:22;0.00;0.00;0.62;0.00;0.00;0.62;1.37;0.70;;;20.50;27.80;;;;;;2253082;61;20879;-62
2021/01/28 10:39:06;0.00;0.00;0.62;0.00;0.00;0.62;1.60;0.80;;;20.50;27.80;;;;;;2253282;61;20351;-61
2021/01/28 10:41:52;0.00;0.00;0.62;0.00;0.00;0.62;1.37;0.80;;;20.50;27.80;;;;;;2253743;61;20419;-60
2021/01/28 10:44:36;0.00;0.00;0.62;0.00;0.00;0.62;1.20;0.70;;;20.50;27.80;;;;;;2252504;61;20440;-61
2021/01/28 10:47:22;0.00;0.00;0.62;0.00;0.00;0.62;1.10;0.60;;;20.50;27.80;;;;;;2253451;61;20380;-63
2021/01/28 10:50:09;0.00;0.00;0.62;0.00;0.00;0.62;1.77;1.07;;;20.60;27.80;;;;;;2253861;61;20376;-62
2021/01/28 10:52:54;0.00;0.00;0.62;0.00;0.00;0.62;1.10;0.70;;;20.50;27.80;;;;;;2253302;61;20411;-61
2021/01/28 10:55:39;0.00;0.00;0.62;0.00;0.00;0.62;1.40;0.70;;;20.60;27.80;;;;;;2253560;61;20423;-62
2021/01/28 10:58:26;0.00;0.00;0.62;0.00;0.00;0.62;1.20;0.73;;;20.60;27.80;;;;;;2253076;61;20381;-62
2021/01/28 11:01:11;0.00;0.00;0.62;0.00;0.00;0.62;1.20;0.70;;;20.60;27.80;;;;;;2775683;45;20331;-61
2021/01/28 11:03:56;0.00;0.00;0.62;0.00;0.00;0.62;1.40;0.70;;;20.60;27.80;;;;;;2257732;61;20363;-62
2021/01/28 11:06:41;0.00;0.00;0.62;0.00;0.00;0.62;1.13;0.67;;;20.60;27.80;;;;;;2257056;61;20450;-61
2021/01/28 11:09:25;0.00;0.00;0.62;0.00;0.00;0.62;1.47;0.70;;;20.60;27.80;;;;;;2257481;61;20363;-61
2021/01/28 11:12:10;0.00;0.00;0.62;0.00;0.00;0.62;3.23;0.83;;;20.60;27.80;;;;;;2257789;61;20360;-61
2021/01/28 11:14:55;0.00;0.00;0.62;0.00;0.00;0.62;1.20;0.70;;;20.60;27.80;;;;;;2256937;61;20359;-61
2021/01/28 11:17:40;0.00;0.00;0.62;0.00;0.00;0.62;1.30;0.70;;;20.60;27.80;;;;;;2257504;61;20463;-61
2021/01/28 11:20:25;0.00;0.00;0.62;0.00;0.00;0.62;1.20;0.70;;;20.60;27.80;;;;;;2257274;61;20359;-61
2021/01/28 11:23:10;0.00;0.00;0.62;0.00;0.00;0.62;1.17;0.67;;;20.70;27.90;;;;;;2254094;61;20379;-61
2021/01/28 11:25:55;0.00;0.00;0.62;0.00;0.00;0.62;1.20;0.70;;;20.70;27.90;;;;;;2253758;61;20453;-61
2021/01/28 11:28:40;0.00;0.00;0.62;0.00;0.00;0.62;1.17;0.63;;;20.60;27.80;;;;;;2252985;61;20511;-60
2021/01/28 11:31:24;0.00;0.00;0.62;0.00;0.00;0.62;1.20;0.80;;;20.70;27.90;;;;;;2253486;61;20481;-61